Time;durP1;ratioP1;P1;durP2;ratioP2;P2;SDS_P1;SDS_P2;PMS_P1;PMS_P2;Temp;Humidity;BMP_temperature;BMP_pressure;BME280_temperature;BME280_humidity;BME280_pressure;Samples;Min_cycle;Max_cycle;Signal;HPM_P1;HPM_P2
2024/04/11 00:01:23;;;;;;;6.07;3.40;;;25.00;46.60;;;;;;6581948;26;79590;-59
2024/04/11 00:04:23;;;;;;;5.97;3.55;;;24.90;46.50;;;;;;6581017;26;81231;-58
2024/04/11 00:07:24;;;;;;;5.32;2.80;;;24.90;46.50;;;;;;6580396;26;79065;-62
2024/04/11 00:10:25;;;;;;;5.75;2.85;;;24.90;46.50;;;;;;6581918;26;80117;-61
2024/04/11 00:13:25;;;;;;;6.45;3.08;;;24.90;46.50;;;;;;6580190;26;78717;-61
2024/04/11 00:16:27;;;;;;;5.95;3.20;;;24.90;46.50;;;;;;6580157;26;78853;-61
2024/04/11 00:19:27;;;;;;;4.32;3.08;;;24.90;46.50;;;;;;6580630;26;79255;-60
2024/04/11 00:22:28;;;;;;;7.43;3.55;;;24.90;46.50;;;;;;6583003;26;79004;-60
2024/04/11 00:25:28;;;;;;;8.82;3.83;;;24.90;46.50;;;;;;6581658;26;78772;-62
2024/04/11 00:28:29;;;;;;;4.85;2.65;;;24.80;46.50;;;;;;6581042;26;82407;-62
2024/04/11 00:31:29;;;;;;;5.93;3.33;;;24.90;46.60;;;;;;6580541;26;85555;-62
2024/04/11 00:34:32;;;;;;;5.82;3.38;;;24.80;46.40;;;;;;6581507;26;79576;-62
2024/04/11 00:37:32;;;;;;;6.47;3.30;;;24.80;46.40;;;;;;6580997;26;79231;-61
2024/04/11 00:40:33;;;;;;;5.35;3.30;;;24.80;46.50;;;;;;6581488;26;79307;-62
2024/04/11 00:43:34;;;;;;;7.65;4.13;;;24.80;46.50;;;;;;6581939;26;79676;-55
2024/04/11 00:46:34;;;;;;;11.65;3.95;;;24.80;46.50;;;;;;6579313;26;78807;-59
2024/04/11 00:49:35;;;;;;;8.55;3.83;;;24.80;46.60;;;;;;6580573;26;79081;-58
2024/04/11 00:52:35;;;;;;;5.88;3.30;;;24.90;46.50;;;;;;6580625;26;78907;-59
2024/04/11 00:55:36;;;;;;;6.57;3.40;;;24.80;46.50;;;;;;6580570;26;79679;-51
2024/04/11 00:58:38;;;;;;;8.48;3.65;;;24.80;46.60;;;;;;6581137;26;79310;-54
2024/04/11 01:01:38;;;;;;;7.53;3.70;;;24.80;46.50;;;;;;6580474;26;82105;-67
2024/04/11 01:04:39;;;;;;;8.88;4.35;;;24.80;46.50;;;;;;6580208;26;80094;-70
2024/04/11 01:07:40;;;;;;;6.97;3.95;;;24.80;46.50;;;;;;6581972;26;79858;-69
2024/04/11 01:10:40;;;;;;;7.10;3.45;;;24.80;46.50;;;;;;6581969;26;86780;-69
2024/04/11 01:13:41;;;;;;;8.57;4.50;;;24.80;46.50;;;;;;6580118;26;83914;-68
2024/04/11 01:16:41;;;;;;;7.05;3.97;;;24.80;46.40;;;;;;6580672;26;81938;-69
2024/04/11 01:19:42;;;;;;;7.88;3.45;;;24.80;46.50;;;;;;6580838;26;80150;-68
2024/04/11 01:22:42;;;;;;;6.13;3.70;;;24.70;46.40;;;;;;6604898;26;78779;-68
2024/04/11 01:25:43;;;;;;;5.88;3.63;;;24.80;46.50;;;;;;6605124;26;78785;-68
2024/04/11 01:28:45;;;;;;;10.95;3.78;;;24.70;46.30;;;;;;6555788;26;80458;-67
2024/04/11 01:31:46;;;;;;;4.45;3.17;;;24.80;46.40;;;;;;6581309;26;78962;-66
2024/04/11 01:34:47;;;;;;;7.68;3.90;;;24.70;46.40;;;;;;6581399;26;79080;-70
2024/04/11 01:37:47;;;;;;;6.97;3.85;;;24.70;46.40;;;;;;6580455;26;81339;-69
2024/04/11 01:40:48;;;;;;;5.80;3.42;;;24.70;46.50;;;;;;6580483;26;82074;-69
2024/04/11 01:43:49;;;;;;;6.25;3.90;;;24.70;46.40;;;;;;6579381;26;82381;-66
2024/04/11 01:46:52;;;;;;;8.13;3.97;;;24.70;46.40;;;;;;6580661;26;82850;-66
2024/04/11 01:49:54;;;;;;;6.00;3.75;;;24.70;46.40;;;;;;6581117;26;79138;-67
2024/04/11 01:52:56;;;;;;;8.73;3.80;;;24.70;46.50;;;;;;6578500;26;82208;-67
2024/04/11 01:55:56;;;;;;;7.60;3.88;;;24.70;46.50;;;;;;6578927;26;79475;-59
2024/04/11 01:58:57;;;;;;;7.18;3.65;;;24.70;46.50;;;;;;6581856;26;79019;-58
2024/04/11 02:01:57;;;;;;;9.05;4.50;;;24.70;46.40;;;;;;6579377;26;79702;-59
2024/04/11 02:04:58;;;;;;;7.60;4.05;;;24.70;46.30;;;;;;6582821;26;78715;-58
2024/04/11 02:08:01;;;;;;;9.73;3.95;;;24.70;46.40;;;;;;6582712;26;79185;-57
2024/04/11 02:11:01;;;;;;;7.25;3.80;;;24.70;46.40;;;;;;6606960;26;78898;-57
2024/04/11 02:14:02;;;;;;;8.35;3.53;;;24.70;46.40;;;;;;6582458;26;78952;-62
2024/04/11 02:17:07;;;;;;;14.00;4.32;;;24.70;46.30;;;;;;6582601;26;81521;-62
2024/04/11 02:20:10;;;;;;;8.32;3.75;;;24.70;46.30;;;;;;6582006;26;79833;-62
2024/04/11 02:23:10;;;;;;;8.85;4.05;;;24.70;46.30;;;;;;6582876;26;84131;-62
2024/04/11 02:26:11;;;;;;;8.52;4.40;;;24.70;46.30;;;;;;6583975;26;80599;-62
2024/04/11 02:29:12;;;;;;;9.07;3.95;;;24.70;46.30;;;;;;6582898;26;79861;-62
2024/04/11 02:32:12;;;;;;;7.93;4.18;;;24.70;46.30;;;;;;6583616;26;78789;-68
2024/04/11 02:35:14;;;;;;;9.38;3.92;;;24.70;46.30;;;;;;6582626;26;78942;-67
2024/04/11 02:38:14;;;;;;;6.28;3.63;;;24.70;46.30;;;;;;6571068;26;80605;-67
2024/04/11 02:41:16;;;;;;;5.20;3.20;;;24.70;46.20;;;;;;6581566;26;79412;-66
2024/04/11 02:44:18;;;;;;;7.15;4.20;;;24.70;46.30;;;;;;6581316;26;79582;-67
2024/04/11 02:47:20;;;;;;;7.53;3.40;;;24.70;46.20;;;;;;6578193;26;79467;-68
2024/04/11 02:50:23;;;;;;;5.88;3.50;;;24.70;46.30;;;;;;6581661;26;78779;-67
2024/04/11 02:53:24;;;;;;;7.28;4.53;;;24.70;46.30;;;;;;6583120;26;80119;-68
2024/04/11 02:56:26;;;;;;;8.77;4.18;;;24.70;46.40;;;;;;6582289;26;78738;-69
2024/04/11 02:59:27;;;;;;;6.72;3.75;;;24.70;46.30;;;;;;6583692;26;79118;-69
2024/04/11 03:02:28;;;;;;;7.65;4.00;;;24.70;46.30;;;;;;6582369;26;79037;-69
2024/04/11 03:05:29;;;;;;;6.95;3.38;;;24.70;46.30;;;;;;6581810;26;79332;-69
2024/04/11 03:08:29;;;;;;;9.13;4.82;;;24.70;46.40;;;;;;6581661;26;78785;-69
2024/04/11 03:11:30;;;;;;;10.20;3.90;;;24.70;46.30;;;;;;6581065;26;78805;-63
2024/04/11 03:14:30;;;;;;;5.95;3.65;;;24.70;46.30;;;;;;6587658;26;81602;-69
2024/04/11 03:17:33;;;;;;;9.45;3.95;;;24.70;46.30;;;;;;6590358;26;78894;-69
2024/04/11 03:20:33;;;;;;;9.93;4.18;;;24.70;46.30;;;;;;6587064;26;79798;-67
2024/04/11 03:23:34;;;;;;;7.28;4.10;;;24.70;46.30;;;;;;6596143;26;78938;-67
2024/04/11 03:26:34;;;;;;;6.10;3.72;;;24.70;46.30;;;;;;6582624;26;78948;-70
2024/04/11 03:29:35;;;;;;;8.70;4.38;;;24.70;46.30;;;;;;6599193;26;79147;-68
2024/04/11 03:32:35;;;;;;;8.43;4.15;;;24.70;46.20;;;;;;6580784;26;84346;-70
2024/04/11 03:35:36;;;;;;;8.75;5.00;;;24.60;46.20;;;;;;6581799;26;79006;-70
2024/04/11 03:38:36;;;;;;;8.95;4.00;;;24.70;46.20;;;;;;6582536;26;80635;-70
2024/04/11 03:41:37;;;;;;;11.00;4.25;;;24.70;46.20;;;;;;6582004;26;79588;-68
2024/04/11 03:44:39;;;;;;;9.30;4.20;;;24.70;46.10;;;;;;6581615;26;78821;-67
2024/04/11 03:47:42;;;;;;;11.25;4.60;;;24.70;46.00;;;;;;6581540;26;79694;-69
2024/04/11 03:50:42;;;;;;;7.55;4.30;;;24.70;45.90;;;;;;6582594;26;83032;-63
2024/04/11 03:53:43;;;;;;;7.75;4.55;;;24.70;45.90;;;;;;6581340;26;84321;-61
2024/04/11 03:56:44;;;;;;;9.57;3.53;;;24.70;45.80;;;;;;6581627;26;78974;-61
2024/04/11 03:59:45;;;;;;;6.20;3.72;;;24.80;46.00;;;;;;6582649;26;79967;-62
2024/04/11 04:02:46;;;;;;;8.70;3.85;;;24.80;46.00;;;;;;6555199;26;82786;-57
2024/04/11 04:05:46;;;;;;;10.77;4.25;;;24.90;46.10;;;;;;6581663;26;78720;-56
2024/04/11 04:08:47;;;;;;;9.75;4.43;;;24.90;46.20;;;;;;6581623;26;80016;-59
2024/04/11 04:11:47;;;;;;;12.32;5.43;;;24.90;46.50;;;;;;6588284;26;80493;-58
2024/04/11 04:14:48;;;;;;;10.13;4.30;;;25.00;46.30;;;;;;6581890;26;79231;-61
2024/04/11 04:17:51;;;;;;;12.15;3.88;;;25.00;46.30;;;;;;6582807;26;81973;-62
2024/04/11 04:20:51;;;;;;;10.77;4.68;;;25.10;46.50;;;;;;6558722;26;79420;-61
2024/04/11 04:23:55;;;;;;;11.35;4.53;;;25.10;47.20;;;;;;6580916;26;79350;-51
2024/04/11 04:26:56;;;;;;;12.38;4.40;;;25.10;47.30;;;;;;6581246;26;78699;-49
2024/04/11 04:29:57;;;;;;;15.30;4.65;;;25.20;47.60;;;;;;6581338;26;79095;-49
2024/04/11 04:32:58;;;;;;;9.98;4.60;;;25.20;48.10;;;;;;6582054;26;79034;-57
2024/04/11 04:35:59;;;;;;;17.98;5.88;;;25.30;47.80;;;;;;6581198;26;79342;-52
2024/04/11 04:39:00;;;;;;;16.77;4.28;;;25.30;48.20;;;;;;6581023;26;84317;-57
2024/04/11 04:42:01;;;;;;;17.13;4.38;;;25.30;49.00;;;;;;6581744;26;78671;-56
2024/04/11 04:45:04;;;;;;;26.65;5.07;;;25.30;49.10;;;;;;6581625;26;80386;-56
2024/04/11 04:48:05;;;;;;;13.35;3.97;;;25.30;48.90;;;;;;6579890;26;79874;-55
2024/04/11 04:51:05;;;;;;;13.45;4.53;;;25.30;49.00;;;;;;6581195;26;81687;-56
2024/04/11 04:54:06;;;;;;;10.80;4.47;;;25.40;49.00;;;;;;6581131;26;79162;-58
2024/04/11 04:57:06;;;;;;;11.68;3.80;;;25.40;49.00;;;;;;6578638;26;79010;-57
2024/04/11 05:00:08;;;;;;;16.10;3.90;;;25.40;48.90;;;;;;6578846;26;79196;-65
2024/04/11 05:03:10;;;;;;;12.30;3.72;;;25.40;48.70;;;;;;6574968;26;79241;-64
2024/04/11 05:06:12;;;;;;;11.68;3.70;;;25.40;48.80;;;;;;6595892;26;82685;-64
2024/04/11 05:09:13;;;;;;;13.75;4.30;;;25.40;48.80;;;;;;6580461;26;80750;-63
2024/04/11 05:12:13;;;;;;;9.85;4.05;;;25.40;48.60;;;;;;6581370;26;79138;-64
2024/04/11 05:15:14;;;;;;;15.77;3.63;;;25.40;48.80;;;;;;6580004;26;79108;-62
2024/04/11 05:18:16;;;;;;;6.47;4.25;;;25.40;48.60;;;;;;6579535;26;80036;-56
2024/04/11 05:21:19;;;;;;;14.30;4.22;;;25.40;48.50;;;;;;6572631;26;90588;-46
2024/04/11 05:24:20;;;;;;;15.88;4.25;;;25.40;48.50;;;;;;6547547;26;79074;-48
2024/04/11 05:27:20;;;;;;;10.63;4.47;;;25.40;48.60;;;;;;6573251;26;82104;-54
2024/04/11 05:30:21;;;;;;;13.82;4.38;;;25.40;48.50;;;;;;6578480;26;79047;-53
2024/04/11 05:33:22;;;;;;;12.00;4.10;;;25.40;48.60;;;;;;6573475;26;79146;-48
2024/04/11 05:36:25;;;;;;;10.70;3.90;;;25.40;48.70;;;;;;6579896;26;79502;-62
2024/04/11 05:39:25;;;;;;;9.70;4.25;;;25.40;48.60;;;;;;6580459;26;78938;-66
2024/04/11 05:42:26;;;;;;;10.73;4.28;;;25.40;48.50;;;;;;6599493;26;78790;-65
2024/04/11 05:45:33;;;;;;;9.98;3.97;;;25.40;48.50;;;;;;6578707;26;79373;-67
2024/04/11 05:48:35;;;;;;;8.55;4.25;;;25.40;48.50;;;;;;6579589;26;78979;-66
2024/04/11 05:51:35;;;;;;;8.70;4.00;;;25.50;48.60;;;;;;6594055;26;79000;-65
2024/04/11 05:54:36;;;;;;;9.98;4.32;;;25.50;48.70;;;;;;6592854;26;79471;-66
2024/04/11 05:57:37;;;;;;;8.25;3.67;;;25.50;48.60;;;;;;6578499;26;79508;-66
2024/04/11 06:00:39;;;;;;;9.13;4.07;;;25.50;48.40;;;;;;6578510;26;80031;-66
2024/04/11 06:03:46;;;;;;;7.28;3.58;;;25.50;48.20;;;;;;6578731;26;82092;-65
2024/04/11 06:06:47;;;;;;;45.05;4.63;;;25.50;48.00;;;;;;6565265;26;80609;-67
2024/04/11 06:09:50;;;;;;;11.35;3.80;;;25.50;48.20;;;;;;6577430;26;81144;-65
2024/04/11 06:12:51;;;;;;;5.78;3.50;;;25.50;48.30;;;;;;6536919;26;81043;-60
2024/04/11 06:15:51;;;;;;;8.93;3.85;;;25.50;48.40;;;;;;6563039;26;79095;-49
2024/04/11 06:18:54;;;;;;;10.25;3.95;;;25.50;48.40;;;;;;6565907;26;80558;-54
2024/04/11 06:21:54;;;;;;;8.70;3.85;;;25.50;48.50;;;;;;6583395;26;85480;-60
2024/04/11 06:24:55;;;;;;;10.65;4.00;;;25.50;48.50;;;;;;6584799;26;80284;-58
2024/04/11 06:27:58;;;;;;;7.05;3.47;;;25.50;48.50;;;;;;6581644;26;80332;-58
2024/04/11 06:30:59;;;;;;;8.63;4.03;;;25.50;48.50;;;;;;6578833;26;79049;-57
2024/04/11 06:33:59;;;;;;;7.85;3.30;;;25.50;49.20;;;;;;6581426;26;78657;-64
2024/04/11 06:37:00;;;;;;;9.40;4.32;;;25.50;48.60;;;;;;6607951;26;79649;-63
2024/04/11 06:40:11;;;;;;;8.60;3.97;;;25.50;48.60;;;;;;6585401;26;79711;-65
2024/04/11 06:43:16;;;;;;;6.32;3.38;;;25.50;48.40;;;;;;6582712;26;79279;-64
2024/04/11 06:46:18;;;;;;;9.05;4.28;;;25.60;48.50;;;;;;6574594;26;81789;-63
2024/04/11 06:49:18;;;;;;;6.85;3.78;;;25.50;48.60;;;;;;6582177;26;79554;-65
2024/04/11 06:52:19;;;;;;;7.53;3.50;;;25.60;48.60;;;;;;6584333;26;81682;-59
2024/04/11 06:55:19;;;;;;;7.75;3.78;;;25.60;48.60;;;;;;6582864;26;79727;-55
2024/04/11 06:58:23;;;;;;;7.32;3.25;;;25.50;48.70;;;;;;6561337;26;80597;-57
2024/04/11 07:01:26;;;;;;;7.18;3.47;;;25.60;48.70;;;;;;6579300;26;82238;-56
2024/04/11 07:04:29;;;;;;;7.18;3.50;;;25.60;48.60;;;;;;6587143;26;84410;-57
2024/04/11 07:07:30;;;;;;;5.43;3.03;;;25.60;48.70;;;;;;6579936;26;79537;-57
2024/04/11 07:10:36;;;;;;;7.13;4.07;;;25.60;48.60;;;;;;6582358;26;79068;-57
2024/04/11 07:13:38;;;;;;;7.95;3.58;;;25.60;48.70;;;;;;6582639;26;78810;-57
2024/04/11 07:16:44;;;;;;;6.07;3.38;;;25.60;48.50;;;;;;6579258;26;78641;-58
2024/04/11 07:19:45;;;;;;;7.55;3.60;;;25.70;48.40;;;;;;6583079;26;79042;-56
2024/04/11 07:22:45;;;;;;;7.65;3.38;;;25.70;48.30;;;;;;6583419;26;78839;-57
2024/04/11 07:25:46;;;;;;;8.57;3.58;;;25.70;48.30;;;;;;6582893;26;79032;-58
2024/04/11 07:28:46;;;;;;;11.82;4.15;;;25.70;48.40;;;;;;6575959;26;79929;-63
2024/04/11 07:31:48;;;;;;;4.88;3.22;;;25.70;48.30;;;;;;6591810;26;78906;-63
2024/04/11 07:34:49;;;;;;;9.98;3.38;;;25.70;48.30;;;;;;6579351;26;84894;-62
2024/04/11 07:37:51;;;;;;;6.68;3.20;;;25.70;48.10;;;;;;6576603;26;79305;-59
2024/04/11 07:40:54;;;;;;;6.00;3.65;;;25.70;48.30;;;;;;6574593;26;78777;-61
2024/04/11 07:43:58;;;;;;;5.63;3.17;;;25.70;48.30;;;;;;6578369;26;79355;-61
2024/04/11 07:46:59;;;;;;;9.95;3.88;;;25.70;48.30;;;;;;6578037;26;81325;-59
2024/04/11 07:49:59;;;;;;;6.38;2.85;;;25.70;48.20;;;;;;6577960;26;85297;-61
2024/04/11 07:53:00;;;;;;;5.60;3.10;;;25.70;48.40;;;;;;6578508;26;79419;-59
2024/04/11 07:56:01;;;;;;;7.03;3.00;;;25.70;48.20;;;;;;6577418;26;84225;-60
2024/04/11 07:59:02;;;;;;;6.57;3.92;;;25.70;48.20;;;;;;6578268;26;79509;-60
2024/04/11 08:02:02;;;;;;;7.18;3.10;;;25.70;48.00;;;;;;6579059;26;79252;-62
2024/04/11 08:05:04;;;;;;;4.97;2.97;;;25.70;47.80;;;;;;6578446;26;80101;-62
2024/04/11 08:08:04;;;;;;;6.50;3.45;;;25.80;47.70;;;;;;6578842;26;78958;-62
2024/04/11 08:11:06;;;;;;;6.38;3.40;;;25.80;47.70;;;;;;6580353;26;79677;-61
2024/04/11 08:14:07;;;;;;;5.97;2.60;;;25.80;47.70;;;;;;6573795;26;80707;-65
2024/04/11 08:17:13;;;;;;;3.33;2.70;;;25.80;47.60;;;;;;6582436;26;79510;-62
2024/04/11 08:20:13;;;;;;;9.85;3.25;;;25.80;47.50;;;;;;6588723;26;79003;-61
2024/04/11 08:23:18;;;;;;;6.05;3.33;;;25.80;47.50;;;;;;6579450;26;85988;-60
2024/04/11 08:26:21;;;;;;;6.13;2.60;;;25.80;47.60;;;;;;6579867;26;79240;-60
2024/04/11 08:29:23;;;;;;;5.60;2.97;;;25.80;47.50;;;;;;6580547;26;79285;-60
2024/04/11 08:32:23;;;;;;;6.78;3.05;;;25.90;47.50;;;;;;6579673;26;79050;-60
2024/04/11 08:35:24;;;;;;;11.50;3.20;;;25.90;47.50;;;;;;6582675;26;80168;-62
2024/04/11 08:38:24;;;;;;;6.75;3.13;;;25.90;47.50;;;;;;6579093;26;79883;-63
2024/04/11 08:41:25;;;;;;;8.52;3.70;;;25.90;47.50;;;;;;6580702;26;79000;-60
2024/04/11 08:44:26;;;;;;;9.05;3.17;;;25.90;47.40;;;;;;6579964;26;79436;-61
2024/04/11 08:47:26;;;;;;;9.98;3.10;;;26.00;47.30;;;;;;6581611;26;79223;-61
2024/04/11 08:50:27;;;;;;;6.20;2.90;;;26.00;47.20;;;;;;6577995;26;79225;-62
2024/04/11 08:53:28;;;;;;;14.45;3.25;;;26.00;47.30;;;;;;6577973;26;78833;-61
2024/04/11 08:56:28;;;;;;;10.80;3.45;;;26.00;47.10;;;;;;6578690;26;79233;-61
2024/04/11 08:59:29;;;;;;;7.35;3.30;;;26.10;47.10;;;;;;6579120;26;79012;-53
2024/04/11 09:02:29;;;;;;;9.43;3.25;;;26.10;46.70;;;;;;6578777;26;79105;-52
2024/04/11 09:05:30;;;;;;;7.70;3.63;;;26.10;46.70;;;;;;6580577;26;78942;-55
2024/04/11 09:08:30;;;;;;;12.20;3.50;;;26.10;46.50;;;;;;6578882;26;80651;-56
2024/04/11 09:11:31;;;;;;;7.50;3.20;;;26.10;46.40;;;;;;6574196;26;79357;-55
2024/04/11 09:14:31;;;;;;;9.15;3.63;;;26.10;46.40;;;;;;6576130;26;79244;-56
2024/04/11 09:17:34;;;;;;;6.72;2.85;;;26.10;46.30;;;;;;6573856;26;78844;-60
2024/04/11 09:20:35;;;;;;;8.18;3.40;;;26.20;46.30;;;;;;6573134;26;78958;-60
2024/04/11 09:23:38;;;;;;;5.38;2.80;;;26.20;46.30;;;;;;6574643;26;79127;-63
2024/04/11 09:26:39;;;;;;;10.75;3.00;;;26.20;46.30;;;;;;6577343;26;79560;-61
2024/04/11 09:29:41;;;;;;;11.80;2.78;;;26.20;46.30;;;;;;6571658;26;79433;-62
2024/04/11 09:32:44;;;;;;;6.90;3.05;;;26.10;46.30;;;;;;6562029;26;80115;-62
2024/04/11 09:35:46;;;;;;;7.82;2.92;;;26.10;46.50;;;;;;6579033;26;79044;-62
2024/04/11 09:38:47;;;;;;;11.57;3.50;;;26.20;46.60;;;;;;6579914;26;79737;-62
2024/04/11 09:41:51;;;;;;;7.97;2.63;;;26.20;46.80;;;;;;6578628;26;79622;-63
2024/04/11 09:44:52;;;;;;;6.40;3.17;;;26.20;46.80;;;;;;6577754;26;78610;-63
2024/04/11 09:47:53;;;;;;;5.68;2.47;;;26.20;46.90;;;;;;6576953;26;79065;-63
2024/04/11 09:50:54;;;;;;;12.35;3.28;;;26.30;46.90;;;;;;6577964;26;79459;-64
2024/04/11 09:53:55;;;;;;;4.57;2.53;;;26.30;46.80;;;;;;6579562;26;79740;-62
2024/04/11 09:56:56;;;;;;;13.00;2.78;;;26.30;46.70;;;;;;6571192;26;80221;-62
2024/04/11 09:59:56;;;;;;;8.02;2.45;;;26.30;46.80;;;;;;6572411;26;81403;-61
2024/04/11 10:02:57;;;;;;;7.60;2.70;;;26.40;46.80;;;;;;6565511;26;80338;-62
2024/04/11 10:05:57;;;;;;;5.05;2.40;;;26.40;46.70;;;;;;6580312;26;80669;-62
2024/04/11 10:08:58;;;;;;;5.93;2.80;;;26.50;46.70;;;;;;6580490;26;79088;-60
2024/04/11 10:12:00;;;;;;;5.25;2.20;;;26.50;46.50;;;;;;6578060;26;78998;-55
2024/04/11 10:15:03;;;;;;;5.20;2.30;;;26.50;46.30;;;;;;6577668;26;79310;-57
2024/04/11 10:18:05;;;;;;;5.80;2.60;;;26.50;46.20;;;;;;6584950;26;79075;-57
2024/04/11 10:21:11;;;;;;;9.07;2.70;;;26.50;46.20;;;;;;6585254;26;78869;-55
2024/04/11 10:24:15;;;;;;;9.05;2.80;;;26.60;46.30;;;;;;6586194;26;79384;-54
2024/04/11 10:27:18;;;;;;;4.88;2.40;;;26.70;46.10;;;;;;6585072;26;78941;-55
2024/04/11 10:30:20;;;;;;;3.90;2.40;;;26.70;46.10;;;;;;6580002;26;79007;-64
2024/04/11 10:33:29;;;;;;;5.88;2.40;;;26.70;46.00;;;;;;6577842;26;80359;-63
2024/04/11 10:36:35;;;;;;;4.65;2.80;;;26.70;45.90;;;;;;6580722;26;79270;-61
2024/04/11 10:39:36;;;;;;;5.32;2.78;;;26.70;45.80;;;;;;6589334;26;80669;-62
2024/04/11 10:42:36;;;;;;;5.65;2.60;;;26.80;46.00;;;;;;6566099;26;79363;-60
2024/04/11 10:45:38;;;;;;;4.53;2.72;;;26.80;46.20;;;;;;6579928;26;79085;-60
2024/04/11 10:48:40;;;;;;;6.13;2.10;;;26.80;46.10;;;;;;6577030;26;79061;-55
2024/04/11 10:51:41;;;;;;;5.55;2.42;;;26.80;46.00;;;;;;6578141;26;80207;-58
2024/04/11 10:54:48;;;;;;;5.13;2.38;;;26.80;45.80;;;;;;6576883;26;79313;-56
2024/04/11 10:57:56;;;;;;;7.20;2.40;;;26.80;45.80;;;;;;6574901;26;78966;-57
2024/04/11 11:04:06;;;;;;;9.80;2.42;;;26.80;45.80;;;;;;6580509;26;83008;-57
2024/04/11 11:07:09;;;;;;;5.55;2.55;;;26.70;44.50;;;;;;6578357;26;79343;-61
2024/04/11 11:10:11;;;;;;;6.57;2.75;;;26.70;44.50;;;;;;6580993;26;79562;-60
2024/04/11 11:13:12;;;;;;;12.70;3.20;;;26.60;44.60;;;;;;6579627;26;79485;-60
2024/04/11 11:16:13;;;;;;;8.02;3.45;;;26.60;43.70;;;;;;6581565;26;79098;-60
2024/04/11 11:19:13;;;;;;;10.35;3.30;;;26.60;43.50;;;;;;6574803;26;79185;-61
2024/04/11 11:22:14;;;;;;;14.07;3.53;;;26.60;43.20;;;;;;6578500;26;78789;-62
2024/04/11 11:25:15;;;;;;;9.30;2.65;;;26.60;43.50;;;;;;6575047;26;79493;-60
2024/04/11 11:28:17;;;;;;;10.88;3.03;;;26.60;43.40;;;;;;6578838;26;79225;-61
2024/04/11 11:31:20;;;;;;;8.60;2.67;;;26.60;43.20;;;;;;6580071;26;79206;-62
2024/04/11 11:34:27;;;;;;;16.83;2.78;;;26.70;43.50;;;;;;6581392;26;79076;-62
2024/04/11 11:37:31;;;;;;;10.40;3.17;;;26.60;42.90;;;;;;6580695;26;79092;-62
2024/04/11 11:40:38;;;;;;;15.55;3.90;;;26.60;42.50;;;;;;6578550;26;81870;-60
2024/04/11 11:43:43;;;;;;;10.05;3.38;;;26.60;42.50;;;;;;6578882;26;79434;-62
2024/04/11 11:46:44;;;;;;;;;;;26.60;42.60;;;;;;6567358;26;79346;-59
2024/04/11 11:49:44;;;;;;;11.45;2.58;;;26.50;42.60;;;;;;6586715;26;78912;-59
2024/04/11 11:52:49;;;;;;;6.10;2.50;;;26.50;42.40;;;;;;6579849;26;79017;-60
2024/04/11 11:55:57;;;;;;;9.82;2.65;;;26.50;41.90;;;;;;6581170;26;82495;-61
2024/04/11 11:59:02;;;;;;;6.18;2.67;;;26.50;41.60;;;;;;6562737;26;79115;-60
2024/04/11 12:02:04;;;;;;;11.82;3.03;;;26.40;41.20;;;;;;6561020;26;79147;-61
2024/04/11 12:05:07;;;;;;;9.25;3.53;;;26.40;40.90;;;;;;6580743;26;79214;-60
2024/04/11 12:08:07;;;;;;;9.00;2.50;;;26.40;41.00;;;;;;6580813;26;79799;-60
2024/04/11 12:14:22;;;;;;;13.18;2.83;;;26.40;41.70;;;;;;6588978;26;79427;-60
2024/04/11 12:17:23;;;;;;;9.13;2.72;;;26.40;41.80;;;;;;6582306;26;79362;-60
2024/04/11 12:20:30;;;;;;;9.18;2.40;;;26.40;41.90;;;;;;6574180;26;79338;-57
2024/04/11 12:23:34;;;;;;;5.60;2.83;;;26.40;42.50;;;;;;6578453;26;79084;-59
2024/04/11 12:26:35;;;;;;;8.35;2.22;;;26.40;42.80;;;;;;6578990;26;79237;-60
2024/04/11 12:29:36;;;;;;;6.88;3.05;;;26.50;43.00;;;;;;6580227;26;80003;-59
2024/04/11 12:32:40;;;;;;;8.68;2.40;;;26.40;43.00;;;;;;6579028;26;79085;-58
2024/04/11 12:35:54;;;;;;;10.02;2.75;;;26.40;43.40;;;;;;6612786;26;80540;-58
2024/04/11 12:39:03;;;;;;;15.43;2.80;;;26.50;43.80;;;;;;6579761;26;78907;-57
2024/04/11 12:42:06;;;;;;;8.07;3.08;;;26.50;43.70;;;;;;6578101;26;79000;-62
2024/04/11 12:45:07;;;;;;;7.45;2.70;;;26.40;44.00;;;;;;6572286;26;79560;-61
2024/04/11 12:48:09;;;;;;;8.90;2.83;;;26.40;43.20;;;;;;6576392;26;78976;-59
2024/04/11 12:51:11;;;;;;;8.00;2.78;;;26.40;43.40;;;;;;6601680;26;79321;-60
2024/04/11 12:54:15;;;;;;;5.85;2.58;;;26.40;43.00;;;;;;6576506;26;79355;-61
2024/04/11 12:57:17;;;;;;;9.25;2.80;;;26.40;43.00;;;;;;6578797;26;80815;-59
2024/04/11 13:00:34;;;;;;;5.13;1.95;;;26.40;43.10;;;;;;6578162;26;79151;-60
2024/04/11 13:06:48;;;;;;;5.90;2.90;;;26.40;42.70;;;;;;6575081;26;79004;-59
2024/04/11 13:09:49;;;;;;;9.63;3.05;;;26.40;42.60;;;;;;6574707;26;82054;-60
2024/04/11 13:12:49;;;;;;;8.70;2.70;;;26.30;42.20;;;;;;6577088;26;79182;-60
2024/04/11 13:15:54;;;;;;;7.25;2.80;;;26.30;42.20;;;;;;6550990;26;89280;-62
2024/04/11 13:18:54;;;;;;;7.40;2.80;;;26.30;42.00;;;;;;6578576;26;85027;-60
2024/04/11 13:22:05;;;;;;;10.43;3.40;;;26.30;42.10;;;;;;6579659;26;79142;-62
2024/04/11 13:25:10;;;;;;;16.10;3.03;;;26.30;41.90;;;;;;6580330;26;81667;-63
2024/04/11 13:28:12;;;;;;;15.50;2.92;;;26.30;42.10;;;;;;6578591;26;81155;-63
2024/04/11 13:31:19;;;;;;;9.60;3.15;;;26.30;42.10;;;;;;6579240;26;78949;-62
2024/04/11 13:34:34;;;;;;;12.52;2.80;;;26.20;41.80;;;;;;6574000;26;80018;-62
2024/04/11 13:37:37;;;;;;;7.78;3.08;;;26.20;41.90;;;;;;6578082;26;79319;-62
2024/04/11 13:43:39;;;;;;;7.20;3.25;;;26.20;41.70;;;;;;6578627;26;79094;-63
2024/04/11 13:46:39;;;;;;;9.55;3.10;;;26.10;41.60;;;;;;6576643;26;79371;-62
2024/04/11 13:49:57;;;;;;;12.95;2.78;;;26.10;41.60;;;;;;6576894;26;79949;-62
2024/04/11 13:53:04;;;;;;;13.82;3.20;;;26.10;41.40;;;;;;6579378;26;79429;-59
2024/04/11 13:56:04;;;;;;;13.68;3.55;;;26.00;41.10;;;;;;6571863;26;81699;-62
2024/04/11 13:59:08;;;;;;;11.82;3.75;;;26.00;41.40;;;;;;6582654;26;79299;-60
2024/04/11 14:02:30;;;;;;;9.30;3.40;;;26.00;41.00;;;;;;6585023;26;78829;-59
2024/04/11 14:05:45;;;;;;;17.35;3.60;;;25.90;41.10;;;;;;6606401;26;78977;-60
2024/04/11 14:08:46;;;;;;;7.90;3.20;;;25.90;40.90;;;;;;6581134;26;79505;-62
2024/04/11 14:11:51;;;;;;;11.77;3.22;;;25.90;41.00;;;;;;6584219;26;80264;-60
2024/04/11 14:14:51;;;;;;;7.38;3.50;;;25.90;41.30;;;;;;6584179;26;80161;-60
2024/04/11 14:17:55;;;;;;;8.73;2.85;;;25.90;41.00;;;;;;6583771;26;79043;-59
2024/04/11 14:21:17;;;;;;;6.20;2.92;;;25.90;41.20;;;;;;6590023;26;78738;-59
2024/04/11 14:24:16;;;;;;;6.53;3.30;;;25.90;41.20;;;;;;6581957;26;83974;-59
2024/04/11 14:27:16;;;;;;;7.97;3.30;;;25.90;41.00;;;;;;6572999;26;83156;-60
2024/04/11 14:30:24;;;;;;;12.88;3.30;;;25.90;41.30;;;;;;6557528;26;85896;-59
2024/04/11 14:40:03;;;;;;;10.68;3.67;;;25.80;41.20;;;;;;6572473;26;83097;-61
2024/04/11 14:43:11;;;;;;;11.88;3.17;;;25.80;41.40;;;;;;6583550;26;79222;-60
2024/04/11 14:46:13;;;;;;;6.32;2.65;;;25.80;41.50;;;;;;6582766;26;80484;-60
2024/04/11 14:49:16;;;;;;;11.85;2.88;;;25.90;41.80;;;;;;6580262;26;83306;-61
2024/04/11 14:52:19;;;;;;;12.45;3.13;;;25.80;41.90;;;;;;6579308;26;80583;-61
2024/04/11 14:55:22;;;;;;;19.38;3.47;;;25.90;42.00;;;;;;6599719;26;80662;-58
2024/04/11 14:58:30;;;;;;;9.43;3.22;;;25.80;41.80;;;;;;6577680;26;80747;-61
2024/04/11 15:01:31;;;;;;;9.60;3.35;;;25.80;41.50;;;;;;6588656;26;80375;-59
2024/04/11 15:04:32;;;;;;;8.93;3.58;;;25.90;41.60;;;;;;6581113;26;80297;-59
2024/04/11 15:07:33;;;;;;;8.27;3.33;;;25.80;41.40;;;;;;6579886;26;80174;-59
2024/04/11 15:10:41;;;;;;;10.07;3.30;;;25.90;41.30;;;;;;6575907;26;81108;-60
2024/04/11 15:13:44;;;;;;;8.73;3.55;;;25.90;41.30;;;;;;6579983;26;79147;-60
2024/04/11 15:16:47;;;;;;;6.50;2.42;;;25.80;41.70;;;;;;6579985;26;83319;-59
2024/04/11 15:19:47;;;;;;;10.80;3.22;;;25.80;42.70;;;;;;6577400;26;79467;-60
2024/04/11 15:22:48;;;;;;;6.28;3.05;;;25.80;42.20;;;;;;6571054;26;80935;-58
2024/04/11 15:25:51;;;;;;;11.50;2.88;;;25.80;42.10;;;;;;6601488;26;80464;-60
2024/04/11 15:28:52;;;;;;;10.50;3.90;;;25.80;42.20;;;;;;6580364;26;79409;-60
2024/04/11 15:32:05;;;;;;;9.55;3.63;;;25.80;41.70;;;;;;6569854;26;79371;-58
2024/04/11 15:35:09;;;;;;;6.47;2.75;;;25.70;41.80;;;;;;6561027;26;87416;-59
2024/04/11 15:41:10;;;;;;;5.68;2.92;;;25.70;42.00;;;;;;6573207;26;79504;-60
2024/04/11 15:44:10;;;;;;;4.70;2.80;;;25.70;42.20;;;;;;6575967;26;79193;-59
2024/04/11 15:47:15;;;;;;;7.00;3.22;;;25.70;42.20;;;;;;6579317;26;80577;-56
2024/04/11 15:50:16;;;;;;;10.95;3.45;;;25.70;42.10;;;;;;6580555;26;79283;-62
2024/04/11 15:53:17;;;;;;;8.45;3.25;;;25.70;42.10;;;;;;6559917;26;81557;-63
2024/04/11 15:56:34;;;;;;;9.18;2.80;;;25.70;42.40;;;;;;6574239;26;79457;-63
2024/04/11 15:59:38;;;;;;;5.38;3.10;;;25.70;42.20;;;;;;6582445;26;78874;-63
2024/04/11 16:02:44;;;;;;;6.63;3.13;;;25.70;42.00;;;;;;6580978;26;79063;-62
2024/04/11 16:05:47;;;;;;;8.10;2.70;;;25.60;41.80;;;;;;6579884;26;80766;-62
2024/04/11 16:08:57;;;;;;;13.55;3.00;;;25.60;41.80;;;;;;6582224;26;78980;-63